Time;durP1;ratioP1;P1;durP2;ratioP2;P2;SDS_P1;SDS_P2;PMS_P1;PMS_P2;Temp;Humidity;BMP_temperature;BMP_pressure;BME280_temperature;BME280_humidity;BME280_pressure;Samples;Min_cycle;Max_cycle;Signal;HPM_P1;HPM_P2
2022/07/14 00:01:56;;;;;;;4.05;1.90;;;;;;;;;;5032037;28;20064;-40
2022/07/14 00:04:21;;;;;;;4.57;1.60;;;;;;;;;;5031435;28;20430;-38
2022/07/14 00:06:46;;;;;;;10.25;1.75;;;;;;;;;;5032336;28;20297;-39
2022/07/14 00:09:12;;;;;;;6.05;1.42;;;;;;;;;;5032362;28;20101;-38
2022/07/14 00:11:37;;;;;;;7.05;1.50;;;;;;;;;;5032083;28;20075;-39
2022/07/14 00:14:02;;;;;;;9.95;1.48;;;;;;;;;;5031164;28;20033;-38
2022/07/14 00:16:28;;;;;;;5.70;2.08;;;;;;;;;;5032031;28;20096;-38
2022/07/14 00:18:53;;;;;;;8.85;2.22;;;;;;;;;;5032285;28;20377;-41
2022/07/14 00:21:18;;;;;;;8.30;1.80;;;;;;;;;;5031744;28;20029;-41
2022/07/14 00:23:45;;;;;;;7.30;2.33;;;;;;;;;;5031599;28;20025;-40
2022/07/14 00:26:10;;;;;;;5.03;2.13;;;;;;;;;;5031842;28;20030;-38
2022/07/14 00:28:36;;;;;;;6.55;2.20;;;;;;;;;;5031608;28;20105;-39
2022/07/14 00:31:05;;;;;;;9.73;2.05;;;;;;;;;;5031758;28;20053;-41
2022/07/14 00:33:30;;;;;;;6.15;2.20;;;;;;;;;;5030664;28;20033;-40
2022/07/14 00:35:56;;;;;;;10.45;2.92;;;;;;;;;;5031401;28;20059;-39
2022/07/14 00:38:21;;;;;;;3.03;1.80;;;;;;;;;;5031366;28;20052;-41
2022/07/14 00:40:47;;;;;;;9.18;2.10;;;;;;;;;;5031546;28;20057;-39
2022/07/14 00:43:12;;;;;;;5.28;2.13;;;;;;;;;;5030866;28;20064;-40
2022/07/14 00:45:37;;;;;;;5.05;2.25;;;;;;;;;;5031570;28;20065;-38
2022/07/14 00:48:03;;;;;;;3.95;2.35;;;;;;;;;;5031488;28;20017;-42
2022/07/14 00:50:28;;;;;;;11.45;2.92;;;;;;;;;;5031113;28;20112;-39
2022/07/14 00:52:54;;;;;;;7.28;2.53;;;;;;;;;;5030932;28;20480;-41
2022/07/14 00:55:19;;;;;;;8.55;2.55;;;;;;;;;;5030967;28;20025;-39
2022/07/14 00:57:46;;;;;;;10.55;2.80;;;;;;;;;;5031453;28;20438;-40
2022/07/14 01:00:13;;;;;;;5.70;2.40;;;;;;;;;;5031907;28;20063;-39
2022/07/14 01:02:39;;;;;;;7.47;2.63;;;;;;;;;;5030558;28;20104;-38
2022/07/14 01:05:05;;;;;;;7.07;2.63;;;;;;;;;;5030365;28;20579;-40
2022/07/14 01:07:31;;;;;;;7.18;2.55;;;;;;;;;;5031642;28;20094;-39
2022/07/14 01:09:56;;;;;;;6.65;2.17;;;;;;;;;;5031532;28;20097;-39
2022/07/14 01:12:22;;;;;;;6.05;2.20;;;;;;;;;;5030642;28;20082;-40
2022/07/14 01:14:47;;;;;;;5.53;2.10;;;;;;;;;;5030369;28;20076;-39
2022/07/14 01:17:12;;;;;;;9.20;2.55;;;;;;;;;;5030923;28;20075;-39
2022/07/14 01:19:38;;;;;;;10.07;3.05;;;;;;;;;;5030890;28;20099;-39
2022/07/14 01:22:04;;;;;;;7.78;2.97;;;;;;;;;;5030780;28;20021;-41
2022/07/14 01:24:29;;;;;;;6.68;2.35;;;;;;;;;;5030529;28;20021;-39
2022/07/14 01:26:55;;;;;;;6.00;2.13;;;;;;;;;;5031173;28;20457;-39
2022/07/14 01:29:20;;;;;;;6.15;2.08;;;;;;;;;;5030727;28;20476;-38
2022/07/14 01:31:46;;;;;;;5.38;2.65;;;;;;;;;;5031171;28;20040;-38
2022/07/14 01:34:11;;;;;;;8.40;2.47;;;;;;;;;;5029766;28;20034;-38
2022/07/14 01:36:37;;;;;;;6.45;2.30;;;;;;;;;;5031156;28;20025;-38
2022/07/14 01:39:03;;;;;;;6.93;1.83;;;;;;;;;;5031263;28;20029;-38
2022/07/14 01:41:29;;;;;;;8.85;2.30;;;;;;;;;;5030474;28;20457;-39
2022/07/14 01:43:55;;;;;;;4.45;2.20;;;;;;;;;;5030327;28;20021;-39
2022/07/14 01:46:21;;;;;;;6.97;2.58;;;;;;;;;;5030690;28;20034;-39
2022/07/14 01:48:46;;;;;;;9.50;2.03;;;;;;;;;;5030885;28;20034;-39
2022/07/14 01:51:12;;;;;;;4.97;2.42;;;;;;;;;;5030111;28;20140;-39
2022/07/14 01:53:37;;;;;;;7.10;2.00;;;;;;;;;;5030240;28;20029;-43
2022/07/14 01:56:02;;;;;;;6.60;2.13;;;;;;;;;;5034565;28;20040;-38
2022/07/14 01:58:28;;;;;;;8.18;2.40;;;;;;;;;;5034948;28;20030;-38
2022/07/14 02:03:38;;;;;;;7.63;2.10;;;;;;;;;;5033769;28;20043;-41
2022/07/14 02:06:03;;;;;;;7.93;1.98;;;;;;;;;;5034094;28;20368;-39
2022/07/14 02:08:28;;;;;;;3.00;2.10;;;;;;;;;;5034717;28;20591;-38
2022/07/14 02:13:37;;;;;;;11.60;2.58;;;;;;;;;;5033578;28;20556;-42
2022/07/14 02:16:03;;;;;;;4.55;2.47;;;;;;;;;;5033765;28;20108;-39
2022/07/14 02:18:28;;;;;;;10.15;1.98;;;;;;;;;;5034481;28;20056;-40
2022/07/14 02:20:54;;;;;;;4.07;1.88;;;;;;;;;;5034127;28;20021;-39
2022/07/14 02:23:20;;;;;;;2.55;1.77;;;;;;;;;;5033261;28;20093;-38
2022/07/14 02:25:45;;;;;;;4.07;1.90;;;;;;;;;;5033280;28;20038;-41
2022/07/14 02:28:10;;;;;;;5.07;1.92;;;;;;;;;;5033467;28;20431;-39
2022/07/14 02:30:36;;;;;;;6.68;2.13;;;;;;;;;;5034162;28;20028;-38
2022/07/14 02:33:01;;;;;;;8.20;2.00;;;;;;;;;;5033088;28;20028;-39
2022/07/14 02:35:27;;;;;;;4.25;1.70;;;;;;;;;;5034066;28;20087;-39
2022/07/14 02:37:52;;;;;;;11.98;3.35;;;;;;;;;;5033905;28;20028;-40
2022/07/14 02:40:17;;;;;;;8.18;2.15;;;;;;;;;;5033275;28;20068;-38
2022/07/14 02:42:43;;;;;;;7.78;1.90;;;;;;;;;;5033542;28;20021;-39
2022/07/14 02:45:08;;;;;;;4.22;2.03;;;;;;;;;;5033388;28;20025;-40
2022/07/14 02:47:34;;;;;;;4.75;1.70;;;;;;;;;;5033546;28;20034;-39
2022/07/14 02:49:59;;;;;;;3.85;1.85;;;;;;;;;;5033762;28;20028;-44
2022/07/14 02:52:24;;;;;;;6.50;2.20;;;;;;;;;;5031588;28;20035;-39
2022/07/14 02:54:50;;;;;;;4.28;2.28;;;;;;;;;;5033163;28;20029;-39
2022/07/14 02:57:15;;;;;;;4.32;2.33;;;;;;;;;;5033524;28;20105;-38
2022/07/14 02:59:41;;;;;;;9.55;2.40;;;;;;;;;;5033571;28;20116;-38
2022/07/14 03:02:07;;;;;;;7.20;2.10;;;;;;;;;;5032500;28;20044;-38
2022/07/14 03:04:32;;;;;;;3.25;2.10;;;;;;;;;;5033218;28;20028;-39
2022/07/14 03:06:58;;;;;;;14.23;4.30;;;;;;;;;;5032720;28;20438;-39
2022/07/14 03:09:23;;;;;;;19.25;5.03;;;;;;;;;;5031999;28;20041;-38
2022/07/14 03:11:48;;;;;;;9.32;2.35;;;;;;;;;;5032841;28;20096;-39
2022/07/14 03:14:14;;;;;;;5.93;2.15;;;;;;;;;;5032712;28;20045;-40
2022/07/14 03:16:39;;;;;;;8.35;1.90;;;;;;;;;;5032597;28;20057;-39
2022/07/14 03:19:04;;;;;;;6.22;2.00;;;;;;;;;;5033507;28;20029;-40
2022/07/14 03:21:30;;;;;;;5.80;2.00;;;;;;;;;;5032047;28;20067;-38
2022/07/14 03:23:56;;;;;;;14.85;2.88;;;;;;;;;;5031048;28;20041;-40
2022/07/14 03:26:21;;;;;;;5.90;1.88;;;;;;;;;;5032426;28;20037;-38
2022/07/14 03:28:47;;;;;;;7.43;2.60;;;;;;;;;;5032746;28;20396;-38
2022/07/14 03:31:12;;;;;;;14.82;2.55;;;;;;;;;;5032551;28;20381;-38
2022/07/14 03:33:37;;;;;;;17.80;5.40;;;;;;;;;;5031904;28;20064;-41
2022/07/14 03:36:03;;;;;;;4.43;2.28;;;;;;;;;;5032720;28;20025;-39
2022/07/14 03:38:28;;;;;;;10.88;2.08;;;;;;;;;;5032791;28;20103;-40
2022/07/14 03:40:53;;;;;;;13.02;1.80;;;;;;;;;;5032108;28;20046;-40
2022/07/14 03:43:19;;;;;;;22.02;4.65;;;;;;;;;;5031385;28;20032;-42
2022/07/14 03:45:44;;;;;;;32.28;3.83;;;;;;;;;;5032679;28;20059;-40
2022/07/14 03:48:10;;;;;;;40.35;4.15;;;;;;;;;;5032224;28;20419;-38
2022/07/14 03:50:36;;;;;;;33.92;2.92;;;;;;;;;;5032637;28;20028;-40
2022/07/14 03:53:01;;;;;;;40.47;5.35;;;;;;;;;;5031263;28;20037;-39
2022/07/14 03:55:27;;;;;;;15.98;2.85;;;;;;;;;;5032541;28;20071;-38
2022/07/14 03:57:52;;;;;;;11.27;2.58;;;;;;;;;;5032349;28;20537;-38
2022/07/14 04:00:17;;;;;;;24.10;3.25;;;;;;;;;;5032458;28;20029;-38
2022/07/14 04:02:43;;;;;;;10.32;2.65;;;;;;;;;;5030919;28;20097;-40
2022/07/14 04:05:08;;;;;;;25.20;4.30;;;;;;;;;;5032044;28;20009;-39
2022/07/14 04:07:33;;;;;;;17.15;3.45;;;;;;;;;;5032680;28;20393;-38
2022/07/14 04:09:59;;;;;;;12.82;3.35;;;;;;;;;;5032243;28;20022;-41
2022/07/14 04:12:24;;;;;;;18.23;3.00;;;;;;;;;;5031456;28;20026;-38
2022/07/14 04:14:50;;;;;;;11.82;2.38;;;;;;;;;;5031692;28;20033;-39
2022/07/14 04:17:15;;;;;;;11.30;2.28;;;;;;;;;;5030935;28;20389;-39
2022/07/14 04:19:40;;;;;;;16.50;2.38;;;;;;;;;;5032058;28;20075;-39
2022/07/14 04:22:06;;;;;;;13.55;2.17;;;;;;;;;;5031757;28;20100;-38
2022/07/14 04:24:31;;;;;;;6.05;1.75;;;;;;;;;;5031609;28;20022;-38
2022/07/14 04:26:56;;;;;;;14.30;2.10;;;;;;;;;;5031289;28;20041;-38
2022/07/14 04:29:23;;;;;;;10.25;1.73;;;;;;;;;;5031804;28;20034;-39
2022/07/14 04:31:48;;;;;;;5.72;1.55;;;;;;;;;;5031377;28;20469;-40
2022/07/14 04:34:13;;;;;;;10.95;1.90;;;;;;;;;;5029616;28;20049;-38
2022/07/14 04:36:39;;;;;;;7.32;1.60;;;;;;;;;;5031605;28;20052;-39
2022/07/14 04:39:05;;;;;;;6.30;1.60;;;;;;;;;;5031464;28;20029;-39
2022/07/14 04:41:30;;;;;;;5.18;1.58;;;;;;;;;;5031495;28;20019;-41
2022/07/14 04:43:56;;;;;;;4.70;1.53;;;;;;;;;;5030805;28;20513;-39
2022/07/14 04:46:21;;;;;;;2.58;1.60;;;;;;;;;;5031219;28;20286;-38
2022/07/14 04:54:15;;;;;;;9.65;2.10;;;;;;;;;;5030393;28;20203;-40
2022/07/14 04:56:40;;;;;;;8.02;2.10;;;;;;;;;;5031594;28;20112;-39
2022/07/14 04:59:05;;;;;;;8.07;2.17;;;;;;;;;;5031018;28;20029;-39
2022/07/14 05:01:31;;;;;;;7.45;2.30;;;;;;;;;;5031435;28;20027;-38
2022/07/14 05:03:57;;;;;;;11.75;2.00;;;;;;;;;;5030216;28;20060;-39
2022/07/14 05:06:22;;;;;;;12.83;2.70;;;;;;;;;;5031318;28;20029;-38
2022/07/14 05:08:47;;;;;;;9.27;2.17;;;;;;;;;;5031407;28;20698;-38
2022/07/14 05:11:13;;;;;;;6.53;1.83;;;;;;;;;;5031098;28;20250;-38
2022/07/14 05:13:38;;;;;;;11.52;1.85;;;;;;;;;;5030164;28;20033;-42
2022/07/14 05:16:04;;;;;;;17.20;2.35;;;;;;;;;;5030825;28;20079;-39
2022/07/14 05:18:30;;;;;;;8.07;2.55;;;;;;;;;;5031098;28;20025;-38
2022/07/14 05:20:55;;;;;;;16.67;1.92;;;;;;;;;;5030927;28;20021;-38
2022/07/14 05:23:21;;;;;;;10.93;2.00;;;;;;;;;;5030299;28;20111;-40
2022/07/14 05:25:46;;;;;;;12.52;2.20;;;;;;;;;;5030762;28;20036;-39
2022/07/14 05:28:11;;;;;;;9.13;1.98;;;;;;;;;;5030436;28;20029;-38
2022/07/14 05:30:37;;;;;;;8.67;1.83;;;;;;;;;;5033833;28;20026;-38
2022/07/14 05:33:02;;;;;;;3.30;1.63;;;;;;;;;;5034496;28;20270;-39
2022/07/14 05:35:28;;;;;;;4.72;1.83;;;;;;;;;;5035229;28;20041;-40
2022/07/14 05:37:53;;;;;;;4.03;1.70;;;;;;;;;;5033743;28;20026;-41
2022/07/14 05:40:18;;;;;;;9.95;2.15;;;;;;;;;;5034803;28;20045;-42
2022/07/14 05:42:44;;;;;;;5.23;1.87;;;;;;;;;;5034248;28;20025;-39
2022/07/14 05:45:09;;;;;;;4.97;1.43;;;;;;;;;;5034325;28;20326;-38
2022/07/14 05:47:35;;;;;;;10.93;2.20;;;;;;;;;;5035195;28;20333;-38
2022/07/14 05:50:00;;;;;;;4.53;1.80;;;;;;;;;;5035156;28;20024;-44
2022/07/14 05:52:28;;;;;;;7.05;1.70;;;;;;;;;;5034074;28;20025;-40
2022/07/14 05:54:53;;;;;;;3.33;1.65;;;;;;;;;;5033936;28;20017;-38
2022/07/14 05:57:19;;;;;;;9.93;1.75;;;;;;;;;;5034686;28;20155;-39
2022/07/14 05:59:45;;;;;;;7.18;2.05;;;;;;;;;;5032942;28;20071;-42
2022/07/14 06:02:10;;;;;;;5.07;1.52;;;;;;;;;;5034292;28;20397;-40
2022/07/14 06:04:35;;;;;;;128.68;8.52;;;;;;;;;;5031409;28;20181;-39
2022/07/14 06:07:01;;;;;;;3.47;1.33;;;;;;;;;;5033655;28;20044;-38
2022/07/14 06:09:26;;;;;;;2.72;1.40;;;;;;;;;;5045332;28;20242;-38
2022/07/14 06:11:51;;;;;;;8.85;1.85;;;;;;;;;;5042189;28;20388;-39
2022/07/14 06:14:17;;;;;;;6.23;1.37;;;;;;;;;;5049223;28;20064;-37
2022/07/14 06:16:43;;;;;;;5.30;1.50;;;;;;;;;;5049310;28;20337;-37
2022/07/14 06:19:08;;;;;;;4.95;1.42;;;;;;;;;;5032887;28;20465;-37
2022/07/14 06:21:33;;;;;;;4.68;1.65;;;;;;;;;;5030457;28;20412;-37
2022/07/14 06:23:59;;;;;;;4.63;1.20;;;;;;;;;;5031332;28;20379;-37
2022/07/14 06:26:24;;;;;;;3.33;1.13;;;;;;;;;;5031474;28;20033;-37
2022/07/14 06:28:49;;;;;;;6.40;1.50;;;;;;;;;;5027186;28;20071;-39
2022/07/14 06:31:15;;;;;;;15.43;1.63;;;;;;;;;;5039267;28;20515;-38
2022/07/14 06:33:40;;;;;;;3.87;1.20;;;;;;;;;;5048891;28;20039;-37
2022/07/14 06:36:08;;;;;;;2.80;1.40;;;;;;;;;;5038551;28;20322;-38
2022/07/14 06:38:33;;;;;;;7.32;1.50;;;;;;;;;;5045499;28;20441;-43
2022/07/14 06:40:59;;;;;;;7.47;1.30;;;;;;;;;;5053120;28;20080;-38
2022/07/14 06:43:24;;;;;;;3.20;1.15;;;;;;;;;;5051621;28;20031;-38
2022/07/14 06:45:50;;;;;;;8.27;1.27;;;;;;;;;;5038162;28;20030;-37
2022/07/14 06:48:15;;;;;;;3.45;1.27;;;;;;;;;;5018814;28;20466;-38
2022/07/14 06:50:40;;;;;;;14.00;1.85;;;;;;;;;;5029633;28;20040;-38
2022/07/14 06:53:06;;;;;;;2.67;1.08;;;;;;;;;;5028347;28;20729;-40
2022/07/14 06:55:31;;;;;;;7.10;1.30;;;;;;;;;;5029503;28;20048;-40
2022/07/14 06:57:56;;;;;;;13.77;1.63;;;;;;;;;;5023733;28;20013;-39
2022/07/14 07:00:22;;;;;;;8.00;1.20;;;;;;;;;;5032034;28;20072;-39
2022/07/14 07:02:47;;;;;;;1.60;0.90;;;;;;;;;;5028606;28;20362;-38
2022/07/14 07:08:00;;;;;;;4.88;1.08;;;;;;;;;;5031519;28;21873;-37
2022/07/14 07:10:26;;;;;;;10.75;2.08;;;;;;;;;;5030537;28;20041;-38
2022/07/14 07:12:51;;;;;;;3.47;1.55;;;;;;;;;;5030290;28;20096;-42
2022/07/14 07:15:17;;;;;;;3.85;1.30;;;;;;;;;;5029988;28;20040;-39
2022/07/14 07:17:42;;;;;;;9.13;1.10;;;;;;;;;;5024399;28;20034;-38
2022/07/14 07:20:09;;;;;;;3.67;1.10;;;;;;;;;;5030818;28;20461;-37
2022/07/14 07:22:35;;;;;;;1.92;1.00;;;;;;;;;;5029603;28;20029;-40
2022/07/14 07:25:00;;;;;;;5.28;1.10;;;;;;;;;;5026783;28;20036;-39
2022/07/14 07:27:25;;;;;;;6.00;0.80;;;;;;;;;;5025077;28;20548;-40
2022/07/14 07:29:51;;;;;;;5.45;1.25;;;;;;;;;;5027432;28;20037;-39
2022/07/14 07:32:16;;;;;;;41.63;2.67;;;;;;;;;;5030712;28;20041;-38
2022/07/14 07:34:43;;;;;;;2.77;0.90;;;;;;;;;;5029641;28;20039;-39
2022/07/14 07:37:09;;;;;;;3.53;1.00;;;;;;;;;;5031045;28;20266;-38
2022/07/14 07:39:34;;;;;;;6.68;1.20;;;;;;;;;;5031747;28;20045;-39
2022/07/14 07:42:01;;;;;;;4.68;1.27;;;;;;;;;;5031804;28;20043;-42
2022/07/14 07:44:27;;;;;;;6.88;1.30;;;;;;;;;;5025207;28;20017;-40
2022/07/14 07:46:53;;;;;;;16.35;3.08;;;;;;;;;;5029504;28;20160;-38
2022/07/14 07:49:18;;;;;;;49.00;13.43;;;;;;;;;;5028232;28;20041;-38
2022/07/14 07:51:43;;;;;;;63.67;39.80;;;;;;;;;;5030083;28;20266;-38
2022/07/14 07:54:09;;;;;;;3.23;1.17;;;;;;;;;;5027937;28;20297;-38
2022/07/14 07:56:34;;;;;;;4.47;1.20;;;;;;;;;;5030284;28;20266;-40
2022/07/14 07:59:00;;;;;;;5.57;0.87;;;;;;;;;;5029637;28;20056;-38
2022/07/14 08:01:25;;;;;;;7.03;1.27;;;;;;;;;;5029617;28;20093;-39
2022/07/14 08:03:50;;;;;;;5.83;1.10;;;;;;;;;;5026575;28;20044;-38
2022/07/14 08:06:15;;;;;;;2.47;0.90;;;;;;;;;;5031144;28;20079;-37
2022/07/14 08:08:41;;;;;;;6.82;1.02;;;;;;;;;;5029616;28;20254;-37
2022/07/14 08:11:07;;;;;;;4.97;0.93;;;;;;;;;;5028297;28;20640;-39
2022/07/14 08:13:32;;;;;;;1.35;0.65;;;;;;;;;;5028895;28;20037;-39
2022/07/14 08:15:58;;;;;;;15.63;3.65;;;;;;;;;;5029269;28;20374;-41
2022/07/14 08:18:24;;;;;;;21.50;2.85;;;;;;;;;;5026027;28;20037;-37
2022/07/14 08:20:50;;;;;;;6.18;1.00;;;;;;;;;;5024843;28;20032;-38
2022/07/14 08:23:15;;;;;;;10.27;4.72;;;;;;;;;;5030651;28;20754;-38
2022/07/14 08:25:40;;;;;;;3.73;0.73;;;;;;;;;;5042555;28;20124;-38
2022/07/14 08:28:06;;;;;;;10.05;2.78;;;;;;;;;;5031480;28;20259;-36
2022/07/14 08:30:31;;;;;;;8.38;1.35;;;;;;;;;;5029474;28;20523;-37
2022/07/14 08:32:56;;;;;;;10.50;2.33;;;;;;;;;;5030593;28;20641;-38
2022/07/14 08:35:23;;;;;;;2.45;0.82;;;;;;;;;;5028230;28;20026;-37
2022/07/14 08:37:48;;;;;;;3.08;0.70;;;;;;;;;;5028729;28;20036;-37
2022/07/14 08:40:15;;;;;;;38.95;2.72;;;;;;;;;;5030954;28;20053;-36
2022/07/14 08:42:44;;;;;;;2.38;0.68;;;;;;;;;;5023587;28;20029;-37
2022/07/14 08:45:12;;;;;;;4.20;0.80;;;;;;;;;;5026662;28;20048;-36
2022/07/14 08:47:37;;;;;;;4.50;0.95;;;;;;;;;;5056014;28;20041;-37
2022/07/14 08:50:03;;;;;;;4.82;1.08;;;;;;;;;;5027604;28;20021;-38
2022/07/14 08:52:29;;;;;;;3.95;1.27;;;;;;;;;;5027994;28;20021;-40
2022/07/14 08:54:54;;;;;;;4.35;0.95;;;;;;;;;;5027196;28;20039;-38
2022/07/14 08:57:20;;;;;;;3.63;1.40;;;;;;;;;;5026909;28;20084;-41
2022/07/14 08:59:45;;;;;;;4.90;0.95;;;;;;;;;;5027954;28;20119;-40
2022/07/14 09:02:10;;;;;;;2.57;1.07;;;;;;;;;;5027024;28;20021;-40
2022/07/14 09:04:36;;;;;;;2.22;1.00;;;;;;;;;;5028950;28;20301;-39
2022/07/14 09:07:01;;;;;;;3.83;1.15;;;;;;;;;;5021242;28;20041;-38
2022/07/14 09:09:31;;;;;;;5.88;0.90;;;;;;;;;;5027902;28;20024;-38
2022/07/14 09:12:01;;;;;;;11.43;1.45;;;;;;;;;;5026885;28;20101;-38
2022/07/14 09:14:27;;;;;;;5.38;1.30;;;;;;;;;;5028609;28;20021;-37
2022/07/14 09:16:53;;;;;;;6.75;1.13;;;;;;;;;;5028519;28;20025;-38
2022/07/14 09:19:20;;;;;;;2.88;1.30;;;;;;;;;;5026029;28;20076;-38
2022/07/14 09:21:46;;;;;;;7.28;1.63;;;;;;;;;;5023666;28;20025;-38
2022/07/14 09:24:14;;;;;;;6.07;1.08;;;;;;;;;;5028223;28;20025;-40
2022/07/14 09:26:46;;;;;;;2.25;0.88;;;;;;;;;;5029714;28;20388;-40
2022/07/14 09:29:16;;;;;;;1.63;0.90;;;;;;;;;;5026717;28;20021;-38
2022/07/14 09:31:42;;;;;;;7.28;1.83;;;;;;;;;;5029156;28;20040;-36
2022/07/14 09:34:07;;;;;;;2.85;1.40;;;;;;;;;;5030044;28;20063;-38
2022/07/14 09:36:33;;;;;;;2.63;1.10;;;;;;;;;;5029642;28;20029;-37
2022/07/14 09:39:03;;;;;;;2.95;1.25;;;;;;;;;;5030590;28;20234;-39
2022/07/14 09:41:30;;;;;;;3.38;1.40;;;;;;;;;;5028606;28;20053;-38
2022/07/14 09:44:05;;;;;;;1.65;0.90;;;;;;;;;;5024411;28;20018;-39
2022/07/14 09:46:44;;;;;;;1.88;1.10;;;;;;;;;;5018218;28;20038;-37
2022/07/14 09:49:09;;;;;;;4.43;0.90;;;;;;;;;;5011228;28;20026;-38
2022/07/14 09:51:50;;;;;;;1.65;0.70;;;;;;;;;;5010649;28;20071;-38
2022/07/14 09:54:15;;;;;;;3.13;0.70;;;;;;;;;;5026068;28;20021;-38
2022/07/14 09:59:27;;;;;;;2.17;1.02;;;;;;;;;;5029530;28;20032;-38
2022/07/14 10:01:52;;;;;;;0.80;0.63;;;;;;;;;;5028539;28;20037;-39
2022/07/14 10:04:20;;;;;;;3.17;0.67;;;;;;;;;;5018799;28;20080;-40
2022/07/14 10:06:45;;;;;;;1.02;0.70;;;;;;;;;;5027278;28;20105;-38
2022/07/14 10:09:11;;;;;;;1.65;0.55;;;;;;;;;;5029401;28;20104;-38
2022/07/14 10:11:38;;;;;;;13.02;1.25;;;;;;;;;;5026513;28;20025;-38
2022/07/14 10:14:03;;;;;;;3.38;1.10;;;;;;;;;;5027029;28;20384;-38
2022/07/14 10:16:33;;;;;;;3.00;1.00;;;;;;;;;;5030195;28;20025;-39
2022/07/14 10:18:59;;;;;;;4.13;0.85;;;;;;;;;;5033562;28;20040;-39
2022/07/14 10:21:25;;;;;;;3.85;1.27;;;;;;;;;;5032916;28;20026;-42
2022/07/14 10:23:50;;;;;;;2.75;1.00;;;;;;;;;;5029224;28;20013;-37
2022/07/14 10:26:16;;;;;;;2.70;0.90;;;;;;;;;;5030684;28;20033;-37
2022/07/14 10:28:42;;;;;;;4.10;0.95;;;;;;;;;;5030734;28;20112;-39
2022/07/14 10:31:26;;;;;;;2.30;1.03;;;;;;;;;;5031360;28;20029;-39
2022/07/14 10:33:52;;;;;;;4.43;1.20;;;;;;;;;;5029100;28;20270;-39
2022/07/14 10:36:22;;;;;;;3.23;1.23;;;;;;;;;;5030415;28;20480;-39
2022/07/14 10:38:53;;;;;;;2.35;1.05;;;;;;;;;;5031110;28;20269;-38
2022/07/14 10:41:25;;;;;;;8.15;1.65;;;;;;;;;;5032524;28;20062;-39
2022/07/14 10:43:57;;;;;;;4.93;1.35;;;;;;;;;;5032523;28;20155;-39
2022/07/14 10:46:35;;;;;;;14.73;2.33;;;;;;;;;;5032031;28;20039;-37
2022/07/14 10:49:02;;;;;;;5.50;1.95;;;;;;;;;;5030340;28;20034;-38
2022/07/14 10:51:28;;;;;;;7.13;1.70;;;;;;;;;;5027678;28;20025;-40
2022/07/14 10:54:11;;;;;;;5.80;1.95;;;;;;;;;;5031320;28;20017;-36
2022/07/14 10:56:37;;;;;;;4.53;1.80;;;;;;;;;;5031998;28;20029;-38
2022/07/14 10:59:21;;;;;;;4.93;1.63;;;;;;;;;;5030974;28;20021;-37
2022/07/14 11:02:05;;;;;;;8.63;2.05;;;;;;;;;;5031554;28;20112;-37
2022/07/14 11:04:49;;;;;;;9.88;1.95;;;;;;;;;;5018440;28;20033;-37
2022/07/14 11:07:33;;;;;;;9.55;2.53;;;;;;;;;;5028299;28;20030;-36
2022/07/14 11:09:58;;;;;;;9.05;2.20;;;;;;;;;;5033354;28;20425;-37
2022/07/14 11:12:24;;;;;;;11.70;2.23;;;;;;;;;;5030265;28;20071;-38
2022/07/14 11:14:49;;;;;;;10.35;2.47;;;;;;;;;;5029397;28;20262;-36
2022/07/14 11:17:33;;;;;;;8.65;2.08;;;;;;;;;;5029647;28;20018;-37
2022/07/14 11:19:59;;;;;;;8.65;2.25;;;;;;;;;;5032067;28;20018;-38
2022/07/14 11:22:25;;;;;;;10.88;2.35;;;;;;;;;;5032605;28;20053;-39
2022/07/14 11:24:58;;;;;;;9.95;2.28;;;;;;;;;;5030500;28;20013;-39
2022/07/14 11:27:38;;;;;;;8.90;2.25;;;;;;;;;;5030806;28;20034;-37
2022/07/14 11:30:18;;;;;;;10.18;2.35;;;;;;;;;;5032723;28;20044;-38
2022/07/14 11:32:43;;;;;;;5.32;1.55;;;;;;;;;;5030220;28;20032;-38
2022/07/14 11:37:57;;;;;;;4.22;1.00;;;;;;;;;;5028275;28;20054;-38
2022/07/14 11:40:44;;;;;;;7.85;1.10;;;;;;;;;;5026060;28;20049;-38
2022/07/14 11:43:28;;;;;;;5.47;1.30;;;;;;;;;;5025906;28;20096;-37
2022/07/14 11:45:54;;;;;;;4.10;0.70;;;;;;;;;;5028060;28;20113;-37
2022/07/14 11:48:20;;;;;;;2.75;0.75;;;;;;;;;;5028095;28;20104;-38
2022/07/14 11:50:45;;;;;;;1.25;0.63;;;;;;;;;;5029912;28;20045;-43
2022/07/14 11:53:12;;;;;;;2.97;0.80;;;;;;;;;;5028656;28;20060;-39
2022/07/14 11:55:37;;;;;;;5.13;0.80;;;;;;;;;;5027775;28;21151;-39
2022/07/14 11:58:03;;;;;;;2.40;0.80;;;;;;;;;;5028504;28;20067;-39
2022/07/14 12:00:28;;;;;;;0.75;0.75;;;;;;;;;;5028465;28;20409;-38
2022/07/14 12:02:55;;;;;;;4.10;1.48;;;;;;;;;;5028222;28;20036;-40
2022/07/14 12:05:21;;;;;;;2.08;1.00;;;;;;;;;;5026682;28;20025;-38
2022/07/14 12:07:50;;;;;;;5.38;0.85;;;;;;;;;;5028927;28;20583;-43
2022/07/14 12:10:16;;;;;;;1.00;0.70;;;;;;;;;;5026783;28;20017;-38
2022/07/14 12:12:47;;;;;;;3.40;1.08;;;;;;;;;;5029185;28;20064;-39
2022/07/14 12:15:23;;;;;;;1.27;0.70;;;;;;;;;;5026959;28;20021;-40
2022/07/14 12:17:49;;;;;;;6.15;0.90;;;;;;;;;;5026736;28;20035;-39
2022/07/14 12:20:14;;;;;;;1.48;0.80;;;;;;;;;;5022313;28;20377;-42
2022/07/14 12:22:58;;;;;;;2.25;0.70;;;;;;;;;;5024098;28;20029;-39
2022/07/14 12:25:31;;;;;;;1.55;1.00;;;;;;;;;;5026016;28;20111;-40
2022/07/14 12:27:57;;;;;;;4.43;0.80;;;;;;;;;;5030350;28;20037;-39
2022/07/14 12:30:23;;;;;;;3.13;1.08;;;;;;;;;;5028825;28;20018;-40
2022/07/14 12:32:53;;;;;;;1.23;0.77;;;;;;;;;;5026344;28;20027;-40
2022/07/14 12:35:19;;;;;;;0.77;0.73;;;;;;;;;;5029698;28;20041;-39
2022/07/14 12:37:44;;;;;;;7.03;1.02;;;;;;;;;;5026484;28;20022;-41
2022/07/14 12:40:11;;;;;;;2.63;0.90;;;;;;;;;;5023388;28;20535;-39
2022/07/14 12:42:37;;;;;;;1.98;1.00;;;;;;;;;;5036836;28;20273;-38
2022/07/14 12:45:03;;;;;;;2.10;1.08;;;;;;;;;;5049337;28;20052;-38
2022/07/14 12:47:29;;;;;;;3.83;0.82;;;;;;;;;;5031327;28;20398;-38
2022/07/14 12:49:54;;;;;;;1.23;0.80;;;;;;;;;;5031808;28;20108;-38
2022/07/14 12:52:20;;;;;;;3.35;1.17;;;;;;;;;;5030533;28;20030;-39
2022/07/14 12:54:46;;;;;;;4.45;0.90;;;;;;;;;;5030458;28;20469;-39
2022/07/14 12:57:21;;;;;;;1.93;0.93;;;;;;;;;;5029666;28;20026;-38
2022/07/14 12:59:47;;;;;;;12.55;1.55;;;;;;;;;;5031733;28;20072;-38
2022/07/14 13:02:18;;;;;;;3.70;1.02;;;;;;;;;;5031529;28;20421;-40
2022/07/14 13:04:48;;;;;;;2.30;0.80;;;;;;;;;;5024932;28;20045;-42
2022/07/14 13:07:25;;;;;;;1.02;0.77;;;;;;;;;;5022961;28;20033;-38
2022/07/14 13:10:26;;;;;;;0.73;0.73;;;;;;;;;;5044113;28;20027;-38
2022/07/14 13:12:52;;;;;;;1.42;0.90;;;;;;;;;;5028026;28;20071;-38
2022/07/14 13:15:19;;;;;;;3.03;0.75;;;;;;;;;;5041158;28;20650;-38
2022/07/14 13:18:07;;;;;;;2.85;0.98;;;;;;;;;;5032542;28;20377;-38
2022/07/14 13:21:02;;;;;;;1.00;0.90;;;;;;;;;;5016587;28;20033;-38
2022/07/14 13:23:29;;;;;;;2.80;0.70;;;;;;;;;;5019332;28;20033;-38
2022/07/14 13:25:56;;;;;;;3.15;0.88;;;;;;;;;;5028086;28;20049;-39
2022/07/14 13:28:28;;;;;;;3.88;0.80;;;;;;;;;;5025529;28;20021;-38
2022/07/14 13:30:54;;;;;;;3.35;1.20;;;;;;;;;;5036647;28;20103;-38
2022/07/14 13:33:19;;;;;;;6.32;0.90;;;;;;;;;;5039351;28;20140;-39
2022/07/14 13:35:45;;;;;;;1.17;0.93;;;;;;;;;;5025511;28;20614;-42
2022/07/14 13:38:10;;;;;;;3.47;0.90;;;;;;;;;;5028254;28;20024;-38
2022/07/14 13:40:36;;;;;;;3.28;0.80;;;;;;;;;;5028501;28;20504;-40
2022/07/14 13:43:02;;;;;;;2.95;0.90;;;;;;;;;;5025987;28;20097;-38
2022/07/14 13:45:27;;;;;;;3.40;1.17;;;;;;;;;;5027732;28;20088;-37
2022/07/14 13:47:52;;;;;;;3.45;0.80;;;;;;;;;;5027131;28;20038;-39
2022/07/14 13:53:01;;;;;;;10.82;1.00;;;;;;;;;;5030190;28;20016;-37
2022/07/14 13:55:27;;;;;;;2.73;1.30;;;;;;;;;;5033948;28;20017;-38
2022/07/14 13:57:52;;;;;;;2.78;0.90;;;;;;;;;;5031955;28;20269;-38
2022/07/14 14:00:18;;;;;;;9.02;1.10;;;;;;;;;;5031054;28;20018;-41
2022/07/14 14:05:27;;;;;;;5.85;0.80;;;;;;;;;;5027981;28;20156;-38
2022/07/14 14:07:53;;;;;;;1.58;0.75;;;;;;;;;;5030868;28;20120;-38
2022/07/14 14:10:18;;;;;;;2.83;0.80;;;;;;;;;;5032780;28;20428;-37
2022/07/14 14:12:43;;;;;;;3.33;0.70;;;;;;;;;;5031052;28;20024;-38
2022/07/14 14:15:09;;;;;;;2.60;1.00;;;;;;;;;;5033508;28;20255;-40
2022/07/14 14:17:34;;;;;;;3.58;0.90;;;;;;;;;;5046320;28;20258;-38
2022/07/14 14:20:00;;;;;;;5.63;0.77;;;;;;;;;;5038945;28;20024;-38
2022/07/14 14:22:25;;;;;;;2.38;1.02;;;;;;;;;;5033462;28;20261;-39
2022/07/14 14:24:50;;;;;;;2.63;1.07;;;;;;;;;;5029902;28;20033;-37
2022/07/14 14:27:16;;;;;;;3.15;1.08;;;;;;;;;;5032369;28;20286;-39
2022/07/14 14:29:42;;;;;;;5.75;1.20;;;;;;;;;;5031905;28;20083;-38
2022/07/14 14:32:07;;;;;;;6.20;0.90;;;;;;;;;;5033197;28;20013;-39
2022/07/14 14:34:33;;;;;;;3.97;0.90;;;;;;;;;;5048460;28;20020;-39
2022/07/14 14:36:58;;;;;;;2.83;1.07;;;;;;;;;;5052502;28;20049;-37
2022/07/14 14:39:23;;;;;;;5.37;0.97;;;;;;;;;;5053868;28;20243;-38
2022/07/14 14:41:49;;;;;;;4.97;1.00;;;;;;;;;;5054056;28;20285;-39
2022/07/14 14:44:14;;;;;;;5.55;0.90;;;;;;;;;;5054490;28;20070;-39
2022/07/14 14:46:39;;;;;;;2.43;0.97;;;;;;;;;;5054086;28;20040;-37
2022/07/14 14:49:04;;;;;;;3.13;1.20;;;;;;;;;;5053488;28;20246;-38
2022/07/14 14:51:30;;;;;;;7.20;0.90;;;;;;;;;;5053517;28;20258;-39
2022/07/14 14:53:55;;;;;;;2.70;1.13;;;;;;;;;;5053892;28;20067;-39
2022/07/14 14:56:21;;;;;;;1.87;1.00;;;;;;;;;;5048766;28;20307;-38
2022/07/14 14:58:46;;;;;;;4.03;1.13;;;;;;;;;;5033700;28;20246;-39
2022/07/14 15:01:11;;;;;;;1.13;0.82;;;;;;;;;;5033073;28;20014;-38
2022/07/14 15:03:37;;;;;;;2.73;1.20;;;;;;;;;;5032395;28;20040;-37